Latest Weather Observations for Port Pirie Airport AWS***

IDS60801

Issued at 8:35 pm CST Friday 25 July 2014 (issued every 30 minutes, with the page automatically refreshed every 10 minutes)

About weather observations | Map of weather stations | Latest weather observations for SA | Other Formats
Station Details ID: 250006 Name: PORT PIRIE AERODROME AWS Lat: -33.23 Lon: 138.00 Height: 10.0 m
Data from the previous 72 hours. | See also: Recent months for locations in South Australia
Date/Time
CST
Temp
°C
App
Temp
°C
Dew
Point
Rel
Hum
%
Delta-T
°C
Wind Press
QNH
hPa
Press
MSL
hPa
Rain
since 9 am
mm
Dir
 
Spd
km/h
Gust
km/h
Spd
kts
Gust
kts
25/08:30pm 10.8 10.6 8.9 88 0.9 W 0 0 0 0 - - 0.2
25/08:00pm 10.6 9.6 8.7 88 0.9 SE 4 6 2 3 - - 0.2
25/07:30pm 10.0 9.0 7.4 84 1.2 S 2 2 1 1 - - 0.2
25/07:00pm 10.4 8.5 7.6 83 1.3 S 7 9 4 5 - - 0.2
25/06:30pm 11.0 9.2 8.0 82 1.5 SSE 7 7 4 4 - - 0.2
25/06:00pm 11.7 10.0 8.4 80 1.6 S 7 9 4 5 - - 0.2
25/05:30pm 13.5 12.1 8.8 73 2.4 SSW 6 11 3 6 - - 0.2
25/05:00pm 16.2 15.8 8.2 59 4.0 CALM 0 4 0 2 - - 0.2
25/04:30pm 15.7 14.5 8.2 61 3.8 NNW 4 6 2 3 - - 0.2
25/04:00pm 16.3 14.7 8.0 58 4.2 N 6 9 3 5 - - 0.2
25/03:30pm 16.8 15.4 8.8 59 4.1 N 6 11 3 6 - - 0.2
25/03:00pm 17.4 15.9 9.1 58 4.3 NNW 7 11 4 6 - - 0.2
25/02:30pm 17.2 16.0 9.6 61 4.0 N 6 13 3 7 - - 0.2
25/02:00pm 16.8 15.3 9.2 61 3.9 NNW 7 13 4 7 - - 0.2
25/01:30pm 16.6 14.7 9.1 61 3.9 NNW 9 17 5 9 - - 0.0
25/01:00pm 15.9 14.1 9.6 66 3.3 N 9 15 5 8 - - 0.0
25/12:30pm 15.2 13.3 9.1 67 3.1 NNW 9 17 5 9 - - 0.0
25/12:00pm 15.1 13.6 10.5 74 2.4 NNW 9 15 5 8 - - 0.0
25/11:30am 13.7 11.6 9.6 76 2.1 NNW 11 19 6 10 - - 0.0
25/11:00am 13.8 11.3 9.6 76 2.2 NNW 13 22 7 12 - - 0.0
25/10:30am 13.2 11.0 9.3 77 2.0 NNW 11 20 6 11 - - 0.0
25/10:00am 13.5 11.9 10.1 80 1.8 N 9 19 5 10 - - 0.0
25/09:30am 12.9 10.7 9.5 80 1.7 NNW 11 20 6 11 - - 0.0
25/09:00am 12.4 11.1 10.0 85 1.2 N 7 13 4 7 - - 0.2
25/08:30am 12.2 10.9 9.9 86 1.2 N 7 13 4 7 - - 0.2
25/08:00am 11.4 9.7 9.8 90 0.8 NNW 9 13 5 7 - - 0.2
25/07:30am 11.1 8.9 9.5 90 0.8 NNW 11 17 6 9 - - 0.2
25/07:00am 10.8 8.9 9.1 89 0.8 NNW 9 13 5 7 - - 0.2
25/06:30am 11.3 9.9 9.4 88 1.0 NNW 7 11 4 6 - - 0.2
25/06:00am 11.7 10.3 9.6 87 1.1 N 7 13 4 7 - - 0.2
25/05:30am 11.6 9.8 9.5 87 1.1 NNW 9 13 5 7 - - 0.2
25/05:00am 11.7 10.6 9.8 88 1.0 N 6 11 3 6 - - 0.2
25/04:30am 11.8 10.6 9.5 86 1.2 N 6 11 3 6 - - 0.2
25/04:00am 11.9 10.1 9.5 85 1.2 NNW 9 17 5 9 - - 0.2
25/03:30am 11.9 10.6 9.8 87 1.1 N 7 15 4 8 - - 0.2
25/03:00am 11.9 10.6 9.8 87 1.1 N 7 15 4 8 - - 0.2
25/02:30am 12.1 10.7 9.5 84 1.3 N 7 15 4 8 - - 0.2
25/02:00am 12.0 10.6 9.4 84 1.3 N 7 13 4 7 - - 0.2
25/01:30am 12.3 10.5 9.3 82 1.5 N 9 17 5 9 - - 0.2
25/01:00am 12.3 10.9 9.5 83 1.4 N 7 13 4 7 - - 0.2
25/12:30am 12.3 10.8 9.3 82 1.5 N 7 11 4 6 - - 0.2
25/12:00am 12.5 11.2 9.3 81 1.6 N 6 11 3 6 - - 0.2
 
Date/Time
CST
Temp
°C
App
Temp
°C
Dew
Point
Rel
Hum
%
Delta-T
°C
Wind Press
QNH
hPa
Press
MSL
hPa
Rain
since 9 am
mm
Dir
 
Spd
km/h
Gust
km/h
Spd
kts
Gust
kts
24/11:30pm 12.2 10.5 9.8 85 1.2 NNW 9 15 5 8 - - 0.2
24/11:00pm 11.4 10.1 9.3 87 1.1 N 6 11 3 6 - - 0.2
24/10:30pm 11.5 9.6 9.1 85 1.2 NW 9 13 5 7 - - 0.2
24/10:00pm 12.1 9.9 9.3 83 1.4 NNW 11 15 6 8 - - 0.2
24/09:30pm 12.3 11.0 9.1 81 1.6 N 6 9 3 5 - - 0.2
24/09:00pm 12.5 11.0 9.1 80 1.7 N 7 11 4 6 - - 0.2
24/08:30pm 12.1 9.8 8.9 81 1.6 NNW 11 15 6 8 - - 0.2
24/08:00pm 12.6 10.5 9.8 83 1.4 NW 11 19 6 10 - - 0.2
24/07:30pm 12.7 11.1 10.1 84 1.3 NNW 9 13 5 7 - - 0.2
24/07:00pm 12.5 10.4 9.7 83 1.4 NNW 11 13 6 7 - - 0.2
24/06:30pm 12.9 9.1 9.2 78 1.9 NNW 19 32 10 17 - - 0.2
24/06:00pm 14.8 11.6 8.5 66 3.2 NW 15 20 8 11 - - 0.0
24/05:30pm 14.8 11.9 8.1 64 3.4 NW 13 20 7 11 - - 0.0
24/05:00pm 15.0 12.0 7.5 61 3.7 NW 13 22 7 12 - - 0.0
24/04:30pm 16.0 13.5 8.2 60 3.9 NW 11 17 6 9 - - 0.0
24/04:00pm 16.8 13.9 8.2 57 4.4 NW 13 20 7 11 - - 0.0
24/03:30pm 18.3 15.0 8.0 51 5.3 NW 15 24 8 13 - - 0.0
24/03:00pm 18.7 14.7 8.1 50 5.4 NW 19 32 10 17 - - 0.0
24/02:30pm 18.5 14.3 7.6 49 5.5 WNW 19 32 10 17 - - 0.0
24/02:00pm 18.5 14.6 8.5 52 5.2 NW 19 30 10 16 - - 0.0
24/01:30pm 18.2 15.1 8.7 54 4.9 WNW 15 30 8 16 - - 0.0
24/01:00pm 17.6 14.0 9.8 60 4.1 NW 19 33 10 18 - - 0.0
24/12:30pm 17.5 14.0 10.1 62 3.9 WNW 19 33 10 18 - - 0.0
24/12:00pm 16.9 13.3 10.5 66 3.4 NW 20 33 11 18 - - 0.0
24/11:30am 14.5 10.7 9.7 73 2.5 NW 20 32 11 17 - - 0.0
24/11:00am 15.5 11.0 10.1 70 2.8 NNW 24 37 13 20 - - 0.0
24/10:30am 15.3 10.6 10.5 73 2.5 NNW 26 41 14 22 - - 0.0
24/10:00am 14.5 10.1 10.5 77 2.1 NNW 24 35 13 19 - - 0.0
24/09:30am 13.6 10.3 10.8 83 1.5 NNW 19 28 10 15 - - 0.0
24/09:00am 12.7 9.2 10.8 88 1.0 NNW 20 32 11 17 - - 3.8
24/08:30am 12.5 10.2 10.6 88 1.0 N 13 30 7 16 - - 3.8
24/08:00am 12.4 9.7 10.5 88 1.0 N 15 24 8 13 - - 3.8
24/07:30am 11.6 8.4 10.0 90 0.8 N 17 28 9 15 - - 3.8
24/07:00am 11.5 7.8 9.6 88 1.0 N 19 33 10 18 - - 3.8
24/06:30am 11.8 8.6 9.9 88 1.0 N 17 30 9 16 - - 3.8
24/06:00am 11.8 8.5 9.7 87 1.1 N 17 33 9 18 - - 3.8
24/05:30am 12.0 8.2 9.7 86 1.2 N 20 37 11 20 - - 3.8
24/05:00am 12.4 8.7 9.4 82 1.5 N 19 35 10 19 - - 3.8
24/04:30am 12.4 7.7 9.4 82 1.5 N 24 39 13 21 - - 3.8
24/04:00am 12.1 7.8 9.5 84 1.3 N 22 39 12 21 - - 3.8
24/03:30am 12.8 8.0 8.9 77 2.0 N 24 37 13 20 - - 3.8
24/03:00am 12.9 8.5 8.8 76 2.1 N 22 37 12 20 - - 3.8
24/02:30am 13.0 8.1 8.5 74 2.2 N 24 37 13 20 - - 3.8
24/02:00am 12.8 7.9 8.5 75 2.1 N 24 39 13 21 - - 3.8
24/01:30am 12.8 7.5 8.5 75 2.1 N 26 39 14 21 - - 3.8
24/01:00am 12.0 7.2 8.7 80 1.6 N 24 35 13 19 - - 3.8
24/12:30am 13.1 7.7 8.0 71 2.5 N 26 39 14 21 - - 3.4
24/12:00am 13.3 7.9 8.2 71 2.5 N 26 39 14 21 - - 3.4
 
Date/Time
CST
Temp
°C
App
Temp
°C
Dew
Point
Rel
Hum
%
Delta-T
°C
Wind Press
QNH
hPa
Press
MSL
hPa
Rain
since 9 am
mm
Dir
 
Spd
km/h
Gust
km/h
Spd
kts
Gust
kts
23/11:30pm 13.0 8.4 8.1 72 2.4 N 22 30 12 16 - - 3.4
23/11:00pm 12.7 8.7 8.2 74 2.2 NNE 19 32 10 17 - - 3.4
23/10:30pm 12.5 8.2 7.8 73 2.3 N 20 32 11 17 - - 3.4
23/10:00pm 12.8 8.8 6.8 67 2.9 N 17 26 9 14 - - 3.2
23/09:30pm 13.3 8.2 5.9 61 3.5 NE 22 35 12 19 - - 3.2
23/09:00pm 12.7 8.1 6.3 65 3.0 NE 20 28 11 15 - - 3.2
23/08:30pm 12.5 8.0 6.8 68 2.7 NE 20 32 11 17 - - 3.2
23/08:00pm 11.9 8.1 7.4 74 2.2 NE 17 24 9 13 - - 3.2
23/07:30pm 11.4 7.6 7.5 77 1.9 NE 17 24 9 13 - - 3.2
23/07:00pm 10.7 8.6 8.3 85 1.2 ENE 9 11 5 6 - - 3.2
23/06:30pm 11.4 7.8 8.4 82 1.5 NE 17 24 9 13 - - 3.0
23/06:00pm 11.4 9.0 8.8 84 1.3 NE 11 15 6 8 - - 2.6
23/05:30pm 11.9 9.0 8.2 78 1.8 NNE 13 24 7 13 - - 2.2
23/05:00pm 12.7 9.7 7.6 71 2.5 N 13 22 7 12 - - 1.2
23/04:30pm 13.9 9.5 6.5 61 3.6 N 19 30 10 16 - - 0.8
23/04:00pm 14.5 9.5 6.6 59 3.8 N 22 33 12 18 - - 0.6
23/03:30pm 16.3 9.7 5.9 50 5.0 NE 30 44 16 24 - - 0.6
23/03:00pm 16.4 9.3 5.7 49 5.2 NNE 32 52 17 28 - - 0.6
23/02:50pm 17.0 10.7 5.6 47 5.5 NNE 28 46 15 25 - - 0.6
23/02:30pm 16.6 10.3 5.6 48 5.3 NE 28 43 15 23 - - 0.6
23/02:00pm 17.5 10.3 5.1 44 5.9 NNE 32 46 17 25 - - 0.6
23/01:36pm 18.1 11.9 6.0 45 5.9 NE 28 46 15 25 - - 0.6
23/01:30pm 17.5 11.7 6.4 48 5.5 NE 26 46 14 25 - - 0.6
23/01:00pm 16.0 10.4 5.6 50 5.0 NE 24 33 13 18 - - 0.6
23/12:30pm 15.4 11.7 6.1 54 4.5 ENE 15 26 8 14 - - 0.6
23/12:00pm 14.7 10.8 7.3 61 3.6 NNE 17 24 9 13 - - 0.6
23/11:30am 13.5 11.2 7.5 67 2.9 NE 9 13 5 7 - - 0.6
23/11:00am 12.2 8.7 7.1 71 2.5 E 15 26 8 14 - - 0.6
23/10:30am 12.1 9.1 7.6 74 2.2 E 13 20 7 11 - - 0.6
23/10:00am 11.9 10.7 9.6 86 1.2 ENE 6 9 3 5 - - 0.4
23/09:30am 11.3 9.2 8.2 81 1.5 NE 9 13 5 7 - - 0.4
23/09:00am 11.5 7.6 7.2 75 2.1 NNE 17 22 9 12 - - 0.6
23/08:30am 11.8 9.5 7.3 74 2.2 NNE 9 15 5 8 - - 0.4
23/08:00am 11.2 8.7 6.5 73 2.2 NE 9 13 5 7 - - 0.0
23/07:30am 12.7 9.6 5.4 61 3.4 N 11 15 6 8 - - 0.0
23/07:00am 13.5 9.8 4.6 55 4.1 N 13 19 7 10 - - 0.0
23/06:30am 14.3 10.7 3.2 47 5.0 N 11 19 6 10 - - 0.0
23/06:00am 14.9 10.1 2.4 43 5.6 NNE 17 22 9 12 - - 0.0
23/05:30am 10.8 8.7 4.0 63 3.0 E 4 7 2 4 - - 0.0
23/05:00am 10.0 8.5 5.0 71 2.3 E 2 6 1 3 - - 0.0
23/04:30am 10.1 8.2 4.9 70 2.3 SSE 4 6 2 3 - - 0.0
23/04:00am 11.3 9.6 4.1 61 3.2 N 2 6 1 3 - - 0.0
23/03:30am 10.2 8.1 4.1 66 2.7 S 4 6 2 3 - - 0.0
23/03:00am 11.9 9.2 2.9 54 3.9 ENE 6 9 3 5 - - 0.0
23/02:30am 15.0 11.7 2.2 42 5.7 N 9 15 5 8 - - 0.0
23/02:00am 15.0 10.9 2.2 42 5.7 N 13 19 7 10 - - 0.0
23/01:30am 14.9 10.8 2.4 43 5.6 N 13 19 7 10 - - 0.0
23/01:00am 14.2 11.0 3.1 47 5.0 N 9 15 5 8 - - 0.0
23/12:30am 12.1 10.0 4.1 58 3.6 N 4 9 2 5 - - 0.0
23/12:00am 8.9 7.3 4.5 74 1.9 E 2 6 1 3 - - 0.0
 
Date/Time
CST
Temp
°C
App
Temp
°C
Dew
Point
Rel
Hum
%
Delta-T
°C
Wind Press
QNH
hPa
Press
MSL
hPa
Rain
since 9 am
mm
Dir
 
Spd
km/h
Gust
km/h
Spd
kts
Gust
kts
22/11:30pm 10.7 9.0 4.0 63 3.0 N 2 6 1 3 - - 0.0
22/11:00pm 11.5 10.1 3.3 57 3.6 CALM 0 2 0 1 - - 0.0
22/10:30pm 12.7 10.5 3.4 53 4.1 N 4 9 2 5 - - 0.0
22/10:00pm 11.3 9.2 3.8 60 3.3 NNW 4 9 2 5 - - 0.0
22/09:30pm 8.7 7.5 4.7 76 1.8 CALM 0 4 0 2 - - 0.0
22/09:00pm 7.2 5.2 4.3 82 1.3 SE 4 6 2 3 - - 0.0

Other Formats:

Comma delimited format used in spreadsheet applications
http://www.bom.gov.au/fwo/IDS60801/IDS60801.99001.axf

JavaScript Object Notation format (JSON) in row-major order
http://www.bom.gov.au/fwo/IDS60801/IDS60801.99001.json